createdAt,value
2022-10-15T00:01:56.887Z,98478.91
2022-10-15T00:04:27.714Z,98475.56
2022-10-15T00:06:57.972Z,98485.38
2022-10-15T00:09:32.067Z,98480.88
2022-10-15T00:12:00.669Z,98481.56
2022-10-15T00:14:29.362Z,98485.94
2022-10-15T00:16:58.943Z,98480.59
2022-10-15T00:19:27.321Z,98472.47
2022-10-15T00:24:31.072Z,98473.03
2022-10-15T00:26:59.511Z,98472.03
2022-10-15T00:29:27.881Z,98471.34
2022-10-15T00:31:56.285Z,98470.66
2022-10-15T00:34:24.768Z,98468.25
2022-10-15T00:36:53.268Z,98472.63
2022-10-15T00:39:24.745Z,98484.22
2022-10-15T00:41:54.757Z,98474.44
2022-10-15T00:44:55.925Z,98473.31
2022-10-15T00:47:34.108Z,98469.34
2022-10-15T00:50:07.579Z,98453.94
2022-10-15T00:52:45.472Z,98458.97
2022-10-15T00:55:19.142Z,98451.38
2022-10-15T00:57:52.906Z,98462.06
2022-10-15T01:00:21.660Z,98461.34
2022-10-15T01:02:54.316Z,98456.88
2022-10-15T01:05:24.655Z,98459.56
2022-10-15T01:07:54.699Z,98456.34
2022-10-15T01:10:34.952Z,98454.81
2022-10-15T01:13:13.821Z,98450.84
2022-10-15T01:15:52.359Z,98454.34
2022-10-15T01:18:25.962Z,98448.06
2022-10-15T01:21:05.260Z,98447.22
2022-10-15T01:24:01.136Z,98442.56
2022-10-15T01:26:56.396Z,98441.75
2022-10-15T01:29:55.826Z,98441.19
2022-10-15T01:32:29.190Z,98436.50
2022-10-15T01:35:06.616Z,98434.72
2022-10-15T01:37:44.067Z,98438.78
2022-10-15T01:40:20.035Z,98424.47
2022-10-15T01:42:56.457Z,98424.63
2022-10-15T01:45:31.220Z,98426.16
2022-10-15T01:48:06.606Z,98439.47
2022-10-15T01:50:39.980Z,98432.69
2022-10-15T01:53:11.748Z,98431.47
2022-10-15T01:55:44.889Z,98425.25
2022-10-15T01:58:14.709Z,98417.13
2022-10-15T02:00:45.416Z,98421.63
2022-10-15T02:03:15.319Z,98422.47
2022-10-15T02:05:50.183Z,98413.78
2022-10-15T02:08:27.423Z,98410.81
2022-10-15T02:11:01.609Z,98406.47
2022-10-15T02:13:39.195Z,98415.47
2022-10-15T02:16:16.761Z,98408.19
2022-10-15T02:18:56.076Z,98409.56
2022-10-15T02:21:32.070Z,98409.28
2022-10-15T02:24:09.857Z,98401.13
2022-10-15T02:26:48.597Z,98409.16
2022-10-15T02:29:21.095Z,98407.34
2022-10-15T02:31:55.220Z,98413.63
2022-10-15T02:34:29.525Z,98420.50
2022-10-15T02:36:59.980Z,98420.13
2022-10-15T02:39:29.439Z,98419.41
2022-10-15T02:41:59.371Z,98421.34
2022-10-15T02:44:28.089Z,98414.63
2022-10-15T02:46:56.869Z,98415.31
2022-10-15T02:49:27.130Z,98412.31
2022-10-15T02:51:55.917Z,98397.47
2022-10-15T02:54:24.121Z,98401.97
2022-10-15T02:56:52.516Z,98394.84
2022-10-15T02:59:20.901Z,98388.66
2022-10-15T03:01:49.589Z,98393.56
2022-10-15T03:04:18.147Z,98391.34
2022-10-15T03:06:49.007Z,98392.63
2022-10-15T03:09:17.822Z,98401.31
2022-10-15T03:11:46.273Z,98394.84
2022-10-15T03:14:15.322Z,98390.53
2022-10-15T03:16:44.297Z,98399.88
2022-10-15T03:19:15.117Z,98409.56
2022-10-15T03:21:43.578Z,98411.25
2022-10-15T03:24:13.363Z,98409.66
2022-10-15T03:26:43.032Z,98422.75
2022-10-15T03:29:11.664Z,98413.66
2022-10-15T03:31:40.295Z,98418.28
2022-10-15T03:34:09.773Z,98421.13
2022-10-15T03:36:38.628Z,98414.06
2022-10-15T03:39:08.614Z,98420.69
2022-10-15T03:41:40.285Z,98422.66
2022-10-15T03:44:10.852Z,98422.38
2022-10-15T03:46:42.191Z,98427.72
2022-10-15T03:49:10.822Z,98418.72
2022-10-15T03:51:41.005Z,98426.69
2022-10-15T03:54:09.395Z,98432.19
2022-10-15T03:56:40.778Z,98433.19
2022-10-15T03:59:09.790Z,98432.75
2022-10-15T04:01:38.956Z,98438.50
2022-10-15T04:04:07.606Z,98433.47
2022-10-15T04:06:37.284Z,98434.16
2022-10-15T04:09:05.829Z,98436.78
2022-10-15T04:11:34.062Z,98439.00
2022-10-15T04:14:04.801Z,98441.53
2022-10-15T04:16:33.607Z,98437.81
2022-10-15T04:19:03.416Z,98432.88
2022-10-15T04:21:34.413Z,98425.16
2022-10-15T04:24:02.740Z,98429.78
2022-10-15T04:26:31.032Z,98425.56
2022-10-15T04:28:59.280Z,98431.47
2022-10-15T04:31:29.429Z,98428.09
2022-10-15T04:33:57.755Z,98432.47
2022-10-15T04:36:26.320Z,98421.66
2022-10-15T04:38:55.940Z,98431.19
2022-10-15T04:41:24.334Z,98426.72
2022-10-15T04:43:52.837Z,98445.13
2022-10-15T04:46:22.614Z,98442.19
2022-10-15T04:48:57.809Z,98456.06
2022-10-15T04:51:26.766Z,98462.63
2022-10-15T04:53:55.320Z,98472.16
2022-10-15T04:56:24.427Z,98458.97
2022-10-15T04:58:53.111Z,98455.31
2022-10-15T05:01:23.225Z,98450.69
2022-10-15T05:03:53.121Z,98454.47
2022-10-15T05:06:23.943Z,98452.66
2022-10-15T05:08:53.470Z,98449.19
2022-10-15T05:11:24.058Z,98454.06
2022-10-15T05:13:53.849Z,98457.72
2022-10-15T05:16:24.774Z,98456.19
2022-10-15T05:18:58.222Z,98454.38
2022-10-15T05:21:26.865Z,98454.91
2022-10-15T05:23:56.876Z,98452.66
2022-10-15T05:26:29.037Z,98446.06
2022-10-15T05:28:58.362Z,98440.03
2022-10-15T05:31:30.637Z,98440.88
2022-10-15T05:34:01.809Z,98445.34
2022-10-15T05:36:31.684Z,98450.53
2022-10-15T05:39:04.211Z,98452.53
2022-10-15T05:41:33.222Z,98449.84
2022-10-15T05:44:02.071Z,98450.28
2022-10-15T05:46:32.179Z,98447.03
2022-10-15T05:49:02.296Z,98453.94
2022-10-15T05:51:32.527Z,98442.72
2022-10-15T05:54:01.138Z,98455.88
2022-10-15T05:56:29.680Z,98453.53
2022-10-15T05:58:59.207Z,98469.81
2022-10-15T06:01:27.464Z,98482.13
2022-10-15T06:03:55.830Z,98489.66
2022-10-15T06:06:27.910Z,98487.78
2022-10-15T06:08:56.905Z,98504.47
2022-10-15T06:11:25.897Z,98495.47
2022-10-15T06:13:54.688Z,98494.47
2022-10-15T06:16:24.214Z,98482.66
2022-10-15T06:18:53.725Z,98496.69
2022-10-15T06:21:22.402Z,98508.59
2022-10-15T06:23:52.694Z,98511.97
2022-10-15T06:26:20.804Z,98515.75
2022-10-15T06:28:49.270Z,98518.56
2022-10-15T06:31:18.027Z,98525.44
2022-10-15T06:33:47.784Z,98534.88
2022-10-15T06:36:16.191Z,98542.69
2022-10-15T06:38:46.568Z,98552.78
2022-10-15T06:41:16.820Z,98549.06
2022-10-15T06:43:46.471Z,98549.31
2022-10-15T06:46:17.746Z,98553.28
2022-10-15T06:48:46.138Z,98564.09
2022-10-15T06:51:14.992Z,98561.50
2022-10-15T06:53:44.083Z,98567.03
2022-10-15T06:56:12.249Z,98567.75
2022-10-15T06:58:45.447Z,98569.81
2022-10-15T07:01:13.957Z,98574.34
2022-10-15T07:03:42.372Z,98564.66
2022-10-15T07:06:11.319Z,98557.78
2022-10-15T07:08:40.075Z,98560.59
2022-10-15T07:11:10.302Z,98563.38
2022-10-15T07:13:39.089Z,98571.69
2022-10-15T07:16:11.892Z,98568.31
2022-10-15T07:18:41.242Z,98579.69
2022-10-15T07:23:39.556Z,98582.19
2022-10-15T07:26:07.917Z,98565.22
2022-10-15T07:28:37.014Z,98566.06
2022-10-15T07:31:09.771Z,98567.88
2022-10-15T07:33:40.046Z,98573.34
2022-10-15T07:36:10.552Z,98572.94
2022-10-15T07:38:40.350Z,98563.53
2022-10-15T07:41:11.170Z,98568.47
2022-10-15T07:43:39.994Z,98574.63
2022-10-15T07:46:10.179Z,98573.22
2022-10-15T07:48:39.172Z,98575.31
2022-10-15T07:51:08.986Z,98572.53
2022-10-15T07:53:37.539Z,98578.28
2022-10-15T07:56:08.093Z,98577.16
2022-10-15T07:58:38.412Z,98584.03
2022-10-15T08:01:08.454Z,98592.47
2022-10-15T08:03:39.226Z,98591.75
2022-10-15T08:06:09.163Z,98598.34
2022-10-15T08:08:38.917Z,98605.06
2022-10-15T08:11:08.600Z,98609.53
2022-10-15T08:13:37.195Z,98602.41
2022-10-15T08:16:06.400Z,98601.31
2022-10-15T08:18:35.657Z,98594.28
2022-10-15T08:21:06.924Z,98594.41
2022-10-15T08:23:35.650Z,98599.59
2022-10-15T08:26:04.161Z,98597.34
2022-10-15T08:28:35.289Z,98599.19
2022-10-15T08:31:05.937Z,98594.53
2022-10-15T08:33:35.641Z,98594.53
2022-10-15T08:36:09.246Z,98600.03
2022-10-15T08:38:38.311Z,98607.63
2022-10-15T08:41:20.111Z,98617.84
2022-10-15T08:43:49.216Z,98616.59
2022-10-15T08:46:26.935Z,98622.34
2022-10-15T08:48:59.786Z,98625.16
2022-10-15T08:51:36.239Z,98622.34
2022-10-15T08:54:08.591Z,98620.38
2022-10-15T08:56:40.436Z,98618.97
2022-10-15T08:59:19.778Z,98617.53
2022-10-15T09:01:54.296Z,98613.91
2022-10-15T09:04:32.571Z,98609.13
2022-10-15T09:07:10.862Z,98608.63
2022-10-15T09:09:46.761Z,98613.50
2022-10-15T09:12:37.086Z,98607.94
2022-10-15T09:15:06.788Z,98603.94
2022-10-15T09:17:37.724Z,98607.81
2022-10-15T09:20:09.350Z,98598.75
2022-10-15T09:22:41.399Z,98584.31
2022-10-15T09:25:17.600Z,98570.91
2022-10-15T09:27:48.807Z,98569.84
2022-10-15T09:30:39.476Z,98557.69
2022-10-15T09:33:15.155Z,98557.84
2022-10-15T09:35:49.057Z,98559.00
2022-10-15T09:38:34.413Z,98555.34
2022-10-15T09:41:16.932Z,98554.81
2022-10-15T09:43:49.253Z,98563.94
2022-10-15T09:46:20.869Z,98559.16
2022-10-15T09:48:58.655Z,98565.81
2022-10-15T09:51:33.264Z,98550.91
2022-10-15T09:54:16.222Z,98554.25
2022-10-15T09:56:52.498Z,98551.66
2022-10-15T09:59:23.198Z,98557.38
2022-10-15T10:02:00.522Z,98551.31
2022-10-15T10:04:33.264Z,98553.84
2022-10-15T10:07:07.550Z,98546.25
2022-10-15T10:09:40.546Z,98552.03
2022-10-15T10:12:19.453Z,98549.19
2022-10-15T10:14:56.923Z,98547.38
2022-10-15T10:17:26.493Z,98540.78
2022-10-15T10:20:16.263Z,98550.03
2022-10-15T10:22:50.395Z,98558.69
2022-10-15T10:25:38.873Z,98555.25
2022-10-15T10:28:18.109Z,98556.06
2022-10-15T10:31:03.931Z,98555.06
2022-10-15T10:33:36.993Z,98553.53
2022-10-15T10:38:39.271Z,98549.88
2022-10-15T10:41:13.549Z,98552.25
2022-10-15T10:43:54.395Z,98547.72
2022-10-15T10:46:25.333Z,98541.19
2022-10-15T10:48:55.187Z,98551.56
2022-10-15T10:51:32.017Z,98542.09
2022-10-15T10:54:03.505Z,98541.13
2022-10-15T10:56:37.994Z,98529.97
2022-10-15T10:59:16.072Z,98529.63
2022-10-15T11:01:44.828Z,98516.16
2022-10-15T11:04:18.592Z,98513.84
2022-10-15T11:07:01.996Z,98516.72
2022-10-15T11:09:55.447Z,98514.03
2022-10-15T11:12:54.837Z,98509.53
2022-10-15T11:15:35.334Z,98517.03
2022-10-15T11:18:24.637Z,98499.19
2022-10-15T11:21:04.362Z,98500.09
2022-10-15T11:23:47.920Z,98493.72
2022-10-15T11:26:52.122Z,98501.38
2022-10-15T11:29:38.045Z,98489.09
2022-10-15T11:32:23.301Z,98482.59
2022-10-15T11:35:17.151Z,98476.47
2022-10-15T11:38:14.306Z,98476.88
2022-10-15T11:40:52.269Z,98477.97
2022-10-15T11:43:44.106Z,98471.03
2022-10-15T11:46:21.854Z,98477.44
2022-10-15T11:49:03.378Z,98467.50
2022-10-15T11:51:39.776Z,98466.63
2022-10-15T11:54:21.327Z,98457.44
2022-10-15T11:56:52.450Z,98462.03
2022-10-15T11:59:38.527Z,98467.38
2022-10-15T12:02:15.835Z,98465.94
2022-10-15T12:04:51.439Z,98452.97
2022-10-15T12:07:24.838Z,98451.47
2022-10-15T12:09:56.340Z,98439.94
2022-10-15T12:12:35.887Z,98420.13
2022-10-15T12:15:24.610Z,98422.66
2022-10-15T12:18:04.057Z,98422.78
2022-10-15T12:20:33.397Z,98420.78
2022-10-15T12:23:05.317Z,98419.00
2022-10-15T12:25:47.076Z,98430.22
2022-10-15T12:28:21.265Z,98425.53
2022-10-15T12:31:10.227Z,98430.13
2022-10-15T12:33:49.054Z,98432.81
2022-10-15T12:36:28.658Z,98426.38
2022-10-15T12:39:01.001Z,98423.94
2022-10-15T12:41:49.401Z,98439.03
2022-10-15T12:46:56.212Z,98430.75
2022-10-15T12:50:01.671Z,98427.72
2022-10-15T12:52:59.304Z,98431.59
2022-10-15T12:55:32.404Z,98440.06
2022-10-15T12:58:07.039Z,98432.56
2022-10-15T13:00:39.132Z,98426.84
2022-10-15T13:03:29.353Z,98425.16
2022-10-15T13:06:21.087Z,98436.56
2022-10-15T13:08:52.745Z,98421.66
2022-10-15T13:11:26.064Z,98417.47
2022-10-15T13:14:00.685Z,98418.81
2022-10-15T13:16:29.728Z,98420.25
2022-10-15T13:19:00.717Z,98425.97
2022-10-15T13:21:52.761Z,98427.97
2022-10-15T13:24:23.913Z,98431.81
2022-10-15T13:26:59.231Z,98436.50
2022-10-15T13:29:29.289Z,98438.22
2022-10-15T13:31:59.817Z,98450.59
2022-10-15T13:34:31.906Z,98441.41
2022-10-15T13:37:04.849Z,98450.16
2022-10-15T13:39:36.617Z,98452.63
2022-10-15T13:42:15.628Z,98442.56
2022-10-15T13:44:45.304Z,98451.63
2022-10-15T13:47:27.210Z,98450.78
2022-10-15T13:50:20.226Z,98454.84
2022-10-15T13:52:55.783Z,98458.84
2022-10-15T13:55:27.093Z,98458.31
2022-10-15T13:58:01.934Z,98446.94
2022-10-15T14:00:35.039Z,98445.75
2022-10-15T14:03:12.321Z,98448.25
2022-10-15T14:05:41.066Z,98445.75
2022-10-15T14:08:20.445Z,98448.78
2022-10-15T14:10:51.309Z,98441.56
2022-10-15T14:13:21.198Z,98462.97
2022-10-15T14:16:00.434Z,98468.97
2022-10-15T14:18:33.826Z,98468.16
2022-10-15T14:21:03.154Z,98483.13
2022-10-15T14:23:34.993Z,98483.44
2022-10-15T14:26:05.816Z,98486.13
2022-10-15T14:28:38.272Z,98489.09
2022-10-15T14:31:08.441Z,98485.97
2022-10-15T14:33:46.778Z,98488.00
2022-10-15T14:36:27.621Z,98490.38
2022-10-15T14:39:19.751Z,98482.34
2022-10-15T14:41:57.563Z,98472.06
2022-10-15T14:44:29.592Z,98475.78
2022-10-15T14:47:05.866Z,98474.13
2022-10-15T14:49:36.567Z,98485.81
2022-10-15T14:52:09.442Z,98472.44
2022-10-15T14:54:43.296Z,98469.34
2022-10-15T14:57:21.143Z,98473.66
2022-10-15T14:59:55.781Z,98478.72
2022-10-15T15:02:26.797Z,98474.22
2022-10-15T15:05:10.139Z,98480.03
2022-10-15T15:07:41.176Z,98477.19
2022-10-15T15:10:13.014Z,98493.75
2022-10-15T15:12:47.563Z,98483.88
2022-10-15T15:15:16.380Z,98475.50
2022-10-15T15:17:45.300Z,98480.94
2022-10-15T15:20:14.227Z,98483.28
2022-10-15T15:22:43.928Z,98482.91
2022-10-15T15:25:20.941Z,98479.22
2022-10-15T15:27:50.939Z,98476.25
2022-10-15T15:30:21.668Z,98487.25
2022-10-15T15:32:51.037Z,98484.41
2022-10-15T15:35:25.698Z,98494.56
2022-10-15T15:37:55.640Z,98494.56
2022-10-15T15:40:27.499Z,98493.44
2022-10-15T15:42:57.407Z,98498.47
2022-10-15T15:45:28.205Z,98508.50
2022-10-15T15:47:58.998Z,98511.06
2022-10-15T15:50:27.666Z,98514.25
2022-10-15T15:52:56.202Z,98520.34
2022-10-15T15:55:26.417Z,98522.81
2022-10-15T15:57:55.112Z,98516.56
2022-10-15T16:00:23.504Z,98516.25
2022-10-15T16:02:57.796Z,98515.41
2022-10-15T16:05:26.742Z,98527.22
2022-10-15T16:07:55.259Z,98519.41
2022-10-15T16:10:25.857Z,98531.50
2022-10-15T16:12:56.345Z,98526.06
2022-10-15T16:15:25.109Z,98524.16
2022-10-15T16:17:55.634Z,98541.75
2022-10-15T16:20:24.127Z,98537.09
2022-10-15T16:22:53.282Z,98532.06
2022-10-15T16:25:26.415Z,98531.31
2022-10-15T16:28:02.110Z,98538.84
2022-10-15T16:30:30.852Z,98540.69
2022-10-15T16:32:59.440Z,98548.09
2022-10-15T16:35:28.160Z,98552.63
2022-10-15T16:37:58.362Z,98554.38
2022-10-15T16:40:26.925Z,98559.78
2022-10-15T16:42:58.629Z,98572.31
2022-10-15T16:45:28.487Z,98574.25
2022-10-15T16:47:57.621Z,98575.16
2022-10-15T16:50:26.233Z,98563.50
2022-10-15T16:52:54.807Z,98567.28
2022-10-15T16:55:23.454Z,98576.06
2022-10-15T16:57:52.239Z,98575.72
2022-10-15T17:00:21.156Z,98575.78
2022-10-15T17:02:52.131Z,98591.16
2022-10-15T17:05:20.997Z,98597.78
2022-10-15T17:07:49.385Z,98609.06
2022-10-15T17:10:17.673Z,98595.66
2022-10-15T17:12:46.357Z,98596.94
2022-10-15T17:15:14.776Z,98608.81
2022-10-15T17:17:43.330Z,98607.34
2022-10-15T17:20:13.914Z,98611.22
2022-10-15T17:22:42.615Z,98620.03
2022-10-15T17:25:11.694Z,98622.44
2022-10-15T17:27:41.978Z,98616.56
2022-10-15T17:30:11.386Z,98622.59
2022-10-15T17:32:41.508Z,98618.66
2022-10-15T17:35:10.387Z,98628.63
2022-10-15T17:37:41.304Z,98628.38
2022-10-15T17:40:11.893Z,98626.63
2022-10-15T17:42:43.129Z,98627.31
2022-10-15T17:45:12.584Z,98628.63
2022-10-15T17:47:44.736Z,98641.34
2022-10-15T17:50:14.683Z,98636.97
2022-10-15T17:52:45.900Z,98640.22
2022-10-15T17:55:14.558Z,98637.66
2022-10-15T17:57:43.317Z,98632.19
2022-10-15T18:00:15.061Z,98638.06
2022-10-15T18:02:44.501Z,98652.88
2022-10-15T18:05:13.477Z,98659.22
2022-10-15T18:07:42.464Z,98662.88
2022-10-15T18:10:14.626Z,98671.75
2022-10-15T18:12:43.118Z,98681.88
2022-10-15T18:15:12.502Z,98683.44
2022-10-15T18:17:41.147Z,98682.41
2022-10-15T18:20:11.407Z,98678.72
2022-10-15T18:22:39.537Z,98685.59
2022-10-15T18:25:12.418Z,98685.59
2022-10-15T18:27:44.749Z,98673.59
2022-10-15T18:30:13.689Z,98675.25
2022-10-15T18:32:42.156Z,98690.09
2022-10-15T18:35:10.819Z,98695.59
2022-10-15T18:37:39.702Z,98695.59
2022-10-15T18:40:12.397Z,98699.91
2022-10-15T18:42:46.294Z,98703.00
2022-10-15T18:45:16.641Z,98697.28
2022-10-15T18:47:45.073Z,98702.31
2022-10-15T18:50:13.522Z,98709.66
2022-10-15T18:52:42.567Z,98706.00
2022-10-15T18:55:12.877Z,98700.78
2022-10-15T18:57:43.804Z,98712.72
2022-10-15T19:00:14.886Z,98707.38
2022-10-15T19:02:43.913Z,98706.28
2022-10-15T19:05:13.911Z,98715.94
2022-10-15T19:07:42.529Z,98713.84
2022-10-15T19:10:14.157Z,98718.31
2022-10-15T19:12:47.729Z,98723.41
2022-10-15T19:15:16.035Z,98726.66
2022-10-15T19:17:45.838Z,98724.03
2022-10-15T19:20:15.950Z,98724.03
2022-10-15T19:22:45.586Z,98728.38
2022-10-15T19:25:14.962Z,98727.94
2022-10-15T19:27:44.038Z,98728.53
2022-10-15T19:30:14.930Z,98728.53
2022-10-15T19:32:45.900Z,98721.50
2022-10-15T19:35:16.646Z,98724.41
2022-10-15T19:37:46.338Z,98724.31
2022-10-15T19:40:16.714Z,98722.72
2022-10-15T19:42:44.983Z,98724.56
2022-10-15T19:47:43.748Z,98729.22
2022-10-15T19:50:13.052Z,98729.66
2022-10-15T19:52:42.375Z,98733.03
2022-10-15T19:55:11.455Z,98730.22
2022-10-15T19:57:39.872Z,98733.78
2022-10-15T20:00:09.530Z,98732.91
2022-10-15T20:02:41.868Z,98745.44
2022-10-15T20:05:10.924Z,98740.44
2022-10-15T20:07:44.325Z,98756.38
2022-10-15T20:10:14.890Z,98768.44
2022-10-15T20:12:47.833Z,98769.84
2022-10-15T20:15:16.238Z,98774.06
2022-10-15T20:17:48.212Z,98787.00
2022-10-15T20:20:16.733Z,98792.47
2022-10-15T20:22:44.899Z,98796.28
2022-10-15T20:25:13.658Z,98803.56
2022-10-15T20:27:44.552Z,98809.22
2022-10-15T20:30:13.105Z,98817.38
2022-10-15T20:32:43.573Z,98828.22
2022-10-15T20:35:14.062Z,98829.91
2022-10-15T20:37:43.761Z,98823.28
2022-10-15T20:40:26.138Z,98821.88
2022-10-15T20:42:54.570Z,98821.06
2022-10-15T20:45:28.214Z,98811.38
2022-10-15T20:47:59.175Z,98802.75
2022-10-15T20:50:34.125Z,98811.09
2022-10-15T20:53:04.788Z,98816.28
2022-10-15T20:55:35.865Z,98824.97
2022-10-15T20:58:07.624Z,98846.38
2022-10-15T21:00:36.256Z,98846.09
2022-10-15T21:03:09.571Z,98847.78
2022-10-15T21:05:45.211Z,98852.00
2022-10-15T21:08:15.269Z,98848.09
2022-10-15T21:10:44.464Z,98852.84
2022-10-15T21:13:14.617Z,98853.97
2022-10-15T21:15:45.157Z,98841.31
2022-10-15T21:18:15.792Z,98835.13
2022-10-15T21:20:46.029Z,98858.88
2022-10-15T21:23:14.332Z,98852.59
2022-10-15T21:25:42.810Z,98853.84
2022-10-15T21:28:11.257Z,98853.44
2022-10-15T21:30:45.992Z,98861.44
2022-10-15T21:33:14.838Z,98861.31
2022-10-15T21:35:43.385Z,98874.50
2022-10-15T21:38:13.517Z,98883.03
2022-10-15T21:40:42.383Z,98889.53
2022-10-15T21:43:10.739Z,98884.63
2022-10-15T21:45:39.404Z,98880.84
2022-10-15T21:48:08.853Z,98886.31
2022-10-15T21:50:37.012Z,98875.75
2022-10-15T21:53:05.412Z,98880.41
2022-10-15T21:55:37.706Z,98885.19
2022-10-15T21:58:06.463Z,98884.34
2022-10-15T22:00:35.274Z,98873.22
2022-10-15T22:03:03.993Z,98881.81
2022-10-15T22:05:35.199Z,98881.81
2022-10-15T22:08:03.544Z,98900.69
2022-10-15T22:10:32.049Z,98887.03
2022-10-15T22:13:06.476Z,98888.16
2022-10-15T22:15:35.505Z,98897.69
2022-10-15T22:18:04.266Z,98896.69
2022-10-15T22:20:32.819Z,98902.34
2022-10-15T22:23:01.842Z,98898.25
2022-10-15T22:25:30.359Z,98902.91
2022-10-15T22:27:58.577Z,98903.34
2022-10-15T22:30:29.293Z,98895.16
2022-10-15T22:32:59.361Z,98897.66
2022-10-15T22:35:27.780Z,98899.91
2022-10-15T22:37:58.240Z,98899.91
2022-10-15T22:40:27.616Z,98899.88
2022-10-15T22:42:56.601Z,98902.41
2022-10-15T22:45:25.359Z,98910.88
2022-10-15T22:47:55.205Z,98901.81
2022-10-15T22:50:24.085Z,98903.13
2022-10-15T22:52:52.409Z,98902.78
2022-10-15T22:55:20.799Z,98903.97
2022-10-15T22:57:50.145Z,98903.97
2022-10-15T23:00:19.881Z,98902.28
2022-10-15T23:02:48.302Z,98907.03
2022-10-15T23:05:18.645Z,98910.22
2022-10-15T23:07:47.347Z,98914.56
2022-10-15T23:10:16.234Z,98914.97
2022-10-15T23:12:44.974Z,98920.94
2022-10-15T23:15:13.360Z,98936.16
2022-10-15T23:17:42.109Z,98935.44
2022-10-15T23:20:15.042Z,98936.56
2022-10-15T23:22:46.014Z,98954.00
2022-10-15T23:25:14.908Z,98950.06
2022-10-15T23:27:46.168Z,98939.94
2022-10-15T23:30:24.737Z,98958.44
2022-10-15T23:32:54.059Z,98961.81
2022-10-15T23:35:22.575Z,98952.63
2022-10-15T23:37:52.984Z,98953.44
2022-10-15T23:40:21.117Z,98963.97
2022-10-15T23:42:49.495Z,98975.16
2022-10-15T23:45:18.625Z,98975.41
2022-10-15T23:47:48.998Z,98976.88
2022-10-15T23:50:19.801Z,98976.78
2022-10-15T23:52:48.189Z,98960.06
2022-10-15T23:55:20.956Z,98973.28
2022-10-15T23:57:49.440Z,98971.44
